sensor_id;sensor_type;location;lat;lon;timestamp;P1;durP1;ratioP1;P2;durP2;ratioP2
43606;SDS011;29197;44.788;10.366;2023-03-03T00:01:04;42.33;;;28.08;;
43606;SDS011;29197;44.788;10.366;2023-03-03T00:03:54;43.67;;;29.05;;
43606;SDS011;29197;44.788;10.366;2023-03-03T00:06:43;37.75;;;25.52;;
43606;SDS011;29197;44.788;10.366;2023-03-03T00:09:32;39.50;;;27.05;;
43606;SDS011;29197;44.788;10.366;2023-03-03T00:12:22;47.47;;;31.65;;
43606;SDS011;29197;44.788;10.366;2023-03-03T00:15:15;46.05;;;29.85;;
43606;SDS011;29197;44.788;10.366;2023-03-03T00:18:09;37.95;;;26.13;;
43606;SDS011;29197;44.788;10.366;2023-03-03T00:21:14;33.30;;;23.73;;
43606;SDS011;29197;44.788;10.366;2023-03-03T00:24:16;35.15;;;24.58;;
43606;SDS011;29197;44.788;10.366;2023-03-03T00:27:09;33.20;;;23.38;;
43606;SDS011;29197;44.788;10.366;2023-03-03T00:30:09;42.33;;;27.45;;
43606;SDS011;29197;44.788;10.366;2023-03-03T00:33:10;46.53;;;30.37;;
43606;SDS011;29197;44.788;10.366;2023-03-03T00:36:20;43.47;;;29.67;;
43606;SDS011;29197;44.788;10.366;2023-03-03T00:39:21;36.72;;;25.40;;
43606;SDS011;29197;44.788;10.366;2023-03-03T00:42:16;37.53;;;25.93;;
43606;SDS011;29197;44.788;10.366;2023-03-03T00:45:15;37.67;;;25.37;;
43606;SDS011;29197;44.788;10.366;2023-03-03T00:48:24;41.45;;;27.95;;
43606;SDS011;29197;44.788;10.366;2023-03-03T00:51:26;43.50;;;29.58;;
43606;SDS011;29197;44.788;10.366;2023-03-03T00:54:15;38.40;;;26.00;;
43606;SDS011;29197;44.788;10.366;2023-03-03T00:57:04;42.22;;;28.58;;
43606;SDS011;29197;44.788;10.366;2023-03-03T00:59:53;42.40;;;28.70;;
43606;SDS011;29197;44.788;10.366;2023-03-03T01:02:41;47.35;;;30.90;;
43606;SDS011;29197;44.788;10.366;2023-03-03T01:05:32;45.07;;;30.40;;
43606;SDS011;29197;44.788;10.366;2023-03-03T01:08:23;44.72;;;28.92;;
43606;SDS011;29197;44.788;10.366;2023-03-03T01:11:15;42.47;;;29.02;;
43606;SDS011;29197;44.788;10.366;2023-03-03T01:14:07;41.55;;;27.77;;
43606;SDS011;29197;44.788;10.366;2023-03-03T01:16:56;36.38;;;25.15;;
43606;SDS011;29197;44.788;10.366;2023-03-03T01:19:45;42.20;;;28.37;;
43606;SDS011;29197;44.788;10.366;2023-03-03T01:22:33;47.40;;;30.02;;
43606;SDS011;29197;44.788;10.366;2023-03-03T01:25:23;50.28;;;31.45;;
43606;SDS011;29197;44.788;10.366;2023-03-03T01:28:12;36.23;;;24.77;;
43606;SDS011;29197;44.788;10.366;2023-03-03T01:31:00;41.65;;;27.92;;
43606;SDS011;29197;44.788;10.366;2023-03-03T01:33:49;45.00;;;29.98;;
43606;SDS011;29197;44.788;10.366;2023-03-03T01:36:38;51.10;;;31.23;;
43606;SDS011;29197;44.788;10.366;2023-03-03T01:39:26;49.33;;;31.05;;
43606;SDS011;29197;44.788;10.366;2023-03-03T01:42:16;40.15;;;26.17;;
43606;SDS011;29197;44.788;10.366;2023-03-03T01:45:12;46.38;;;29.70;;
43606;SDS011;29197;44.788;10.366;2023-03-03T01:48:03;39.92;;;26.50;;
43606;SDS011;29197;44.788;10.366;2023-03-03T01:50:57;35.20;;;24.00;;
43606;SDS011;29197;44.788;10.366;2023-03-03T01:53:49;36.47;;;25.20;;
43606;SDS011;29197;44.788;10.366;2023-03-03T01:56:38;37.83;;;25.48;;
43606;SDS011;29197;44.788;10.366;2023-03-03T01:59:32;38.65;;;25.58;;
43606;SDS011;29197;44.788;10.366;2023-03-03T02:02:22;33.78;;;23.67;;
43606;SDS011;29197;44.788;10.366;2023-03-03T02:05:14;34.83;;;23.92;;
43606;SDS011;29197;44.788;10.366;2023-03-03T02:08:03;35.03;;;23.33;;
43606;SDS011;29197;44.788;10.366;2023-03-03T02:10:53;36.75;;;25.27;;
43606;SDS011;29197;44.788;10.366;2023-03-03T02:13:43;35.40;;;24.70;;
43606;SDS011;29197;44.788;10.366;2023-03-03T02:16:32;38.20;;;26.50;;
43606;SDS011;29197;44.788;10.366;2023-03-03T02:19:23;37.00;;;24.80;;
43606;SDS011;29197;44.788;10.366;2023-03-03T02:22:20;35.83;;;24.23;;
43606;SDS011;29197;44.788;10.366;2023-03-03T02:25:14;39.40;;;25.48;;
43606;SDS011;29197;44.788;10.366;2023-03-03T02:28:10;38.88;;;25.83;;
43606;SDS011;29197;44.788;10.366;2023-03-03T02:30:59;35.40;;;23.10;;
43606;SDS011;29197;44.788;10.366;2023-03-03T02:33:48;37.40;;;23.77;;
43606;SDS011;29197;44.788;10.366;2023-03-03T02:36:38;38.95;;;24.20;;
43606;SDS011;29197;44.788;10.366;2023-03-03T02:39:27;35.08;;;22.75;;
43606;SDS011;29197;44.788;10.366;2023-03-03T02:42:17;31.27;;;21.13;;
43606;SDS011;29197;44.788;10.366;2023-03-03T02:45:11;37.03;;;23.15;;
43606;SDS011;29197;44.788;10.366;2023-03-03T02:48:00;34.83;;;23.00;;
43606;SDS011;29197;44.788;10.366;2023-03-03T02:50:48;34.22;;;23.25;;
43606;SDS011;29197;44.788;10.366;2023-03-03T02:53:37;35.08;;;23.30;;
43606;SDS011;29197;44.788;10.366;2023-03-03T02:56:25;34.22;;;22.63;;
43606;SDS011;29197;44.788;10.366;2023-03-03T02:59:14;34.78;;;22.30;;
43606;SDS011;29197;44.788;10.366;2023-03-03T03:02:04;32.10;;;21.77;;
43606;SDS011;29197;44.788;10.366;2023-03-03T03:04:54;31.80;;;20.60;;
43606;SDS011;29197;44.788;10.366;2023-03-03T03:07:43;31.30;;;21.08;;
43606;SDS011;29197;44.788;10.366;2023-03-03T03:10:31;37.40;;;23.58;;
43606;SDS011;29197;44.788;10.366;2023-03-03T03:13:19;32.35;;;21.67;;
43606;SDS011;29197;44.788;10.366;2023-03-03T03:16:08;36.97;;;23.15;;
43606;SDS011;29197;44.788;10.366;2023-03-03T03:18:58;30.97;;;21.17;;
43606;SDS011;29197;44.788;10.366;2023-03-03T03:21:47;36.03;;;23.38;;
43606;SDS011;29197;44.788;10.366;2023-03-03T03:24:35;37.33;;;24.38;;
43606;SDS011;29197;44.788;10.366;2023-03-03T03:27:24;36.97;;;23.67;;
43606;SDS011;29197;44.788;10.366;2023-03-03T03:30:13;35.50;;;23.17;;
43606;SDS011;29197;44.788;10.366;2023-03-03T03:33:01;33.40;;;21.80;;
43606;SDS011;29197;44.788;10.366;2023-03-03T03:35:51;33.08;;;20.60;;
43606;SDS011;29197;44.788;10.366;2023-03-03T03:38:41;29.92;;;19.95;;
43606;SDS011;29197;44.788;10.366;2023-03-03T03:41:30;27.33;;;19.48;;
43606;SDS011;29197;44.788;10.366;2023-03-03T03:44:18;32.30;;;21.60;;
43606;SDS011;29197;44.788;10.366;2023-03-03T03:47:07;31.20;;;20.52;;
43606;SDS011;29197;44.788;10.366;2023-03-03T03:49:55;32.40;;;22.30;;
43606;SDS011;29197;44.788;10.366;2023-03-03T03:52:45;35.65;;;22.88;;
43606;SDS011;29197;44.788;10.366;2023-03-03T03:55:34;35.65;;;23.02;;
43606;SDS011;29197;44.788;10.366;2023-03-03T03:58:22;38.08;;;24.45;;
43606;SDS011;29197;44.788;10.366;2023-03-03T04:01:11;34.88;;;22.92;;
43606;SDS011;29197;44.788;10.366;2023-03-03T04:03:59;32.30;;;21.42;;
43606;SDS011;29197;44.788;10.366;2023-03-03T04:06:48;30.55;;;19.65;;
43606;SDS011;29197;44.788;10.366;2023-03-03T04:09:38;34.15;;;22.50;;
43606;SDS011;29197;44.788;10.366;2023-03-03T04:12:26;35.70;;;22.10;;
43606;SDS011;29197;44.788;10.366;2023-03-03T04:15:15;34.78;;;22.77;;
43606;SDS011;29197;44.788;10.366;2023-03-03T04:18:04;30.95;;;20.08;;
43606;SDS011;29197;44.788;10.366;2023-03-03T04:20:52;34.33;;;21.40;;
43606;SDS011;29197;44.788;10.366;2023-03-03T04:23:41;31.30;;;20.27;;
43606;SDS011;29197;44.788;10.366;2023-03-03T04:26:31;29.08;;;19.45;;
43606;SDS011;29197;44.788;10.366;2023-03-03T04:29:20;33.65;;;22.35;;
43606;SDS011;29197;44.788;10.366;2023-03-03T04:32:08;34.35;;;21.73;;
43606;SDS011;29197;44.788;10.366;2023-03-03T04:34:57;34.35;;;21.60;;
43606;SDS011;29197;44.788;10.366;2023-03-03T04:37:54;34.45;;;20.65;;
43606;SDS011;29197;44.788;10.366;2023-03-03T04:40:42;32.27;;;19.60;;
43606;SDS011;29197;44.788;10.366;2023-03-03T04:43:32;33.72;;;20.98;;
43606;SDS011;29197;44.788;10.366;2023-03-03T04:46:21;28.92;;;19.05;;
43606;SDS011;29197;44.788;10.366;2023-03-03T04:49:09;29.23;;;19.80;;
43606;SDS011;29197;44.788;10.366;2023-03-03T04:51:58;29.42;;;19.25;;
43606;SDS011;29197;44.788;10.366;2023-03-03T04:54:47;29.90;;;19.48;;
43606;SDS011;29197;44.788;10.366;2023-03-03T04:57:35;27.37;;;17.07;;
43606;SDS011;29197;44.788;10.366;2023-03-03T05:00:25;24.13;;;16.95;;
43606;SDS011;29197;44.788;10.366;2023-03-03T05:03:13;28.90;;;18.25;;
43606;SDS011;29197;44.788;10.366;2023-03-03T05:06:02;25.75;;;16.25;;
43606;SDS011;29197;44.788;10.366;2023-03-03T05:08:51;23.98;;;15.95;;
43606;SDS011;29197;44.788;10.366;2023-03-03T05:11:40;24.65;;;16.80;;
43606;SDS011;29197;44.788;10.366;2023-03-03T05:14:28;25.83;;;17.13;;
43606;SDS011;29197;44.788;10.366;2023-03-03T05:17:18;28.95;;;17.95;;
43606;SDS011;29197;44.788;10.366;2023-03-03T05:20:07;23.50;;;16.08;;
43606;SDS011;29197;44.788;10.366;2023-03-03T05:22:57;24.23;;;16.97;;
43606;SDS011;29197;44.788;10.366;2023-03-03T05:25:47;27.58;;;17.33;;
43606;SDS011;29197;44.788;10.366;2023-03-03T05:28:36;24.47;;;16.47;;
43606;SDS011;29197;44.788;10.366;2023-03-03T05:31:25;28.38;;;17.85;;
43606;SDS011;29197;44.788;10.366;2023-03-03T05:34:15;25.98;;;16.83;;
43606;SDS011;29197;44.788;10.366;2023-03-03T05:37:03;27.02;;;17.55;;
43606;SDS011;29197;44.788;10.366;2023-03-03T05:39:53;25.67;;;17.58;;
43606;SDS011;29197;44.788;10.366;2023-03-03T05:42:41;23.73;;;16.20;;
43606;SDS011;29197;44.788;10.366;2023-03-03T05:45:30;25.13;;;17.40;;
43606;SDS011;29197;44.788;10.366;2023-03-03T05:48:19;25.08;;;17.67;;
43606;SDS011;29197;44.788;10.366;2023-03-03T05:51:09;25.70;;;16.67;;
43606;SDS011;29197;44.788;10.366;2023-03-03T05:53:57;26.50;;;17.60;;
43606;SDS011;29197;44.788;10.366;2023-03-03T05:56:46;28.15;;;18.05;;
43606;SDS011;29197;44.788;10.366;2023-03-03T05:59:34;27.13;;;18.77;;
43606;SDS011;29197;44.788;10.366;2023-03-03T06:02:23;26.95;;;17.15;;
43606;SDS011;29197;44.788;10.366;2023-03-03T06:05:11;25.10;;;16.77;;
43606;SDS011;29197;44.788;10.366;2023-03-03T06:08:01;24.48;;;16.45;;
43606;SDS011;29197;44.788;10.366;2023-03-03T06:10:50;28.30;;;17.37;;
43606;SDS011;29197;44.788;10.366;2023-03-03T06:13:38;28.92;;;17.75;;
43606;SDS011;29197;44.788;10.366;2023-03-03T06:16:28;30.30;;;18.95;;
43606;SDS011;29197;44.788;10.366;2023-03-03T06:19:16;28.35;;;17.35;;
43606;SDS011;29197;44.788;10.366;2023-03-03T06:22:05;30.88;;;19.42;;
43606;SDS011;29197;44.788;10.366;2023-03-03T06:24:55;30.98;;;18.98;;
43606;SDS011;29197;44.788;10.366;2023-03-03T06:27:44;28.30;;;16.75;;
43606;SDS011;29197;44.788;10.366;2023-03-03T06:30:32;30.42;;;17.95;;
43606;SDS011;29197;44.788;10.366;2023-03-03T06:33:21;28.98;;;19.27;;
43606;SDS011;29197;44.788;10.366;2023-03-03T06:36:09;27.35;;;18.30;;
43606;SDS011;29197;44.788;10.366;2023-03-03T06:38:58;32.55;;;20.75;;
43606;SDS011;29197;44.788;10.366;2023-03-03T06:41:48;31.65;;;20.40;;
43606;SDS011;29197;44.788;10.366;2023-03-03T06:44:37;33.60;;;22.37;;
43606;SDS011;29197;44.788;10.366;2023-03-03T06:47:25;32.42;;;20.90;;
43606;SDS011;29197;44.788;10.366;2023-03-03T06:50:14;30.27;;;20.10;;
43606;SDS011;29197;44.788;10.366;2023-03-03T06:53:09;33.60;;;21.30;;
43606;SDS011;29197;44.788;10.366;2023-03-03T06:55:59;35.33;;;22.73;;
43606;SDS011;29197;44.788;10.366;2023-03-03T06:58:50;32.90;;;21.48;;
43606;SDS011;29197;44.788;10.366;2023-03-03T07:01:41;37.20;;;23.85;;
43606;SDS011;29197;44.788;10.366;2023-03-03T07:04:31;42.25;;;24.83;;
43606;SDS011;29197;44.788;10.366;2023-03-03T07:07:21;37.33;;;23.15;;
43606;SDS011;29197;44.788;10.366;2023-03-03T07:10:15;36.15;;;21.80;;
43606;SDS011;29197;44.788;10.366;2023-03-03T07:13:19;31.00;;;20.83;;
43606;SDS011;29197;44.788;10.366;2023-03-03T07:16:11;37.08;;;22.77;;
43606;SDS011;29197;44.788;10.366;2023-03-03T07:19:00;27.65;;;19.50;;
43606;SDS011;29197;44.788;10.366;2023-03-03T07:21:50;35.13;;;23.25;;
43606;SDS011;29197;44.788;10.366;2023-03-03T07:24:39;34.90;;;22.88;;
43606;SDS011;29197;44.788;10.366;2023-03-03T07:27:29;36.30;;;23.03;;
43606;SDS011;29197;44.788;10.366;2023-03-03T07:30:23;41.13;;;24.67;;
43606;SDS011;29197;44.788;10.366;2023-03-03T07:33:17;37.00;;;24.27;;
43606;SDS011;29197;44.788;10.366;2023-03-03T07:36:19;38.15;;;24.00;;
43606;SDS011;29197;44.788;10.366;2023-03-03T07:39:17;31.27;;;19.88;;
43606;SDS011;29197;44.788;10.366;2023-03-03T07:42:17;33.22;;;23.17;;
43606;SDS011;29197;44.788;10.366;2023-03-03T07:45:19;37.97;;;23.77;;
43606;SDS011;29197;44.788;10.366;2023-03-03T07:48:16;35.57;;;23.37;;
43606;SDS011;29197;44.788;10.366;2023-03-03T07:51:12;35.47;;;23.83;;
43606;SDS011;29197;44.788;10.366;2023-03-03T07:54:17;42.55;;;26.30;;
43606;SDS011;29197;44.788;10.366;2023-03-03T07:57:18;36.00;;;23.23;;
43606;SDS011;29197;44.788;10.366;2023-03-03T08:03:36;35.80;;;23.70;;
43606;SDS011;29197;44.788;10.366;2023-03-03T08:06:35;36.42;;;24.45;;
43606;SDS011;29197;44.788;10.366;2023-03-03T08:09:35;31.65;;;21.75;;
43606;SDS011;29197;44.788;10.366;2023-03-03T08:12:33;35.17;;;23.38;;
43606;SDS011;29197;44.788;10.366;2023-03-03T08:15:27;35.80;;;24.15;;
43606;SDS011;29197;44.788;10.366;2023-03-03T08:18:20;35.75;;;23.60;;
43606;SDS011;29197;44.788;10.366;2023-03-03T08:21:12;40.40;;;26.60;;
43606;SDS011;29197;44.788;10.366;2023-03-03T08:24:03;34.08;;;23.88;;
43606;SDS011;29197;44.788;10.366;2023-03-03T08:26:52;36.45;;;24.73;;
43606;SDS011;29197;44.788;10.366;2023-03-03T08:29:40;45.58;;;26.88;;
43606;SDS011;29197;44.788;10.366;2023-03-03T08:32:29;39.13;;;25.90;;
43606;SDS011;29197;44.788;10.366;2023-03-03T08:35:18;45.88;;;28.02;;
43606;SDS011;29197;44.788;10.366;2023-03-03T08:38:08;42.70;;;27.77;;
43606;SDS011;29197;44.788;10.366;2023-03-03T08:40:57;41.92;;;27.13;;
43606;SDS011;29197;44.788;10.366;2023-03-03T08:43:46;39.78;;;25.90;;
43606;SDS011;29197;44.788;10.366;2023-03-03T08:46:34;41.33;;;26.90;;
43606;SDS011;29197;44.788;10.366;2023-03-03T08:49:23;46.47;;;27.42;;
43606;SDS011;29197;44.788;10.366;2023-03-03T08:52:11;42.35;;;26.00;;
43606;SDS011;29197;44.788;10.366;2023-03-03T08:55:01;40.13;;;26.83;;
43606;SDS011;29197;44.788;10.366;2023-03-03T08:57:51;44.23;;;27.27;;
43606;SDS011;29197;44.788;10.366;2023-03-03T09:00:40;53.47;;;33.10;;
43606;SDS011;29197;44.788;10.366;2023-03-03T09:03:29;50.03;;;32.97;;
43606;SDS011;29197;44.788;10.366;2023-03-03T09:06:18;53.97;;;33.30;;
43606;SDS011;29197;44.788;10.366;2023-03-03T09:09:06;43.05;;;28.58;;
43606;SDS011;29197;44.788;10.366;2023-03-03T09:11:57;45.38;;;30.65;;
43606;SDS011;29197;44.788;10.366;2023-03-03T09:14:49;46.15;;;30.35;;
43606;SDS011;29197;44.788;10.366;2023-03-03T09:17:38;54.08;;;34.10;;
43606;SDS011;29197;44.788;10.366;2023-03-03T09:20:31;42.88;;;28.13;;
43606;SDS011;29197;44.788;10.366;2023-03-03T09:23:33;45.65;;;28.83;;
43606;SDS011;29197;44.788;10.366;2023-03-03T09:26:23;43.70;;;28.58;;
43606;SDS011;29197;44.788;10.366;2023-03-03T09:29:22;47.00;;;30.25;;
43606;SDS011;29197;44.788;10.366;2023-03-03T09:32:20;52.83;;;33.97;;
43606;SDS011;29197;44.788;10.366;2023-03-03T09:35:25;44.80;;;28.25;;
43606;SDS011;29197;44.788;10.366;2023-03-03T09:38:24;47.80;;;30.95;;
43606;SDS011;29197;44.788;10.366;2023-03-03T09:41:34;46.20;;;28.85;;
43606;SDS011;29197;44.788;10.366;2023-03-03T09:44:54;44.73;;;29.23;;
43606;SDS011;29197;44.788;10.366;2023-03-03T09:48:19;44.00;;;28.77;;
43606;SDS011;29197;44.788;10.366;2023-03-03T09:51:26;46.50;;;30.02;;
43606;SDS011;29197;44.788;10.366;2023-03-03T09:54:36;46.93;;;29.43;;
43606;SDS011;29197;44.788;10.366;2023-03-03T09:57:45;42.80;;;28.70;;
43606;SDS011;29197;44.788;10.366;2023-03-03T10:01:00;45.13;;;29.20;;
43606;SDS011;29197;44.788;10.366;2023-03-03T10:07:12;43.90;;;28.88;;
43606;SDS011;29197;44.788;10.366;2023-03-03T10:10:23;40.20;;;26.65;;
43606;SDS011;29197;44.788;10.366;2023-03-03T10:13:22;39.85;;;26.38;;
43606;SDS011;29197;44.788;10.366;2023-03-03T10:16:25;48.13;;;32.28;;
43606;SDS011;29197;44.788;10.366;2023-03-03T10:19:27;41.75;;;27.10;;
43606;SDS011;29197;44.788;10.366;2023-03-03T10:22:26;39.05;;;25.17;;
43606;SDS011;29197;44.788;10.366;2023-03-03T10:25:27;30.35;;;20.88;;
43606;SDS011;29197;44.788;10.366;2023-03-03T10:31:34;28.83;;;20.47;;
43606;SDS011;29197;44.788;10.366;2023-03-03T10:34:28;36.35;;;24.27;;
43606;SDS011;29197;44.788;10.366;2023-03-03T10:37:23;29.33;;;20.63;;
43606;SDS011;29197;44.788;10.366;2023-03-03T10:40:20;30.35;;;21.35;;
43606;SDS011;29197;44.788;10.366;2023-03-03T10:43:22;29.13;;;20.40;;
43606;SDS011;29197;44.788;10.366;2023-03-03T10:46:26;33.17;;;23.15;;
43606;SDS011;29197;44.788;10.366;2023-03-03T10:49:32;28.73;;;20.05;;
43606;SDS011;29197;44.788;10.366;2023-03-03T10:52:35;31.77;;;22.30;;
43606;SDS011;29197;44.788;10.366;2023-03-03T10:55:34;32.60;;;22.63;;
43606;SDS011;29197;44.788;10.366;2023-03-03T10:58:32;31.27;;;22.67;;
43606;SDS011;29197;44.788;10.366;2023-03-03T11:01:36;32.27;;;22.37;;
43606;SDS011;29197;44.788;10.366;2023-03-03T11:04:37;27.52;;;20.25;;
43606;SDS011;29197;44.788;10.366;2023-03-03T11:07:38;29.02;;;20.83;;
43606;SDS011;29197;44.788;10.366;2023-03-03T11:10:33;26.50;;;19.77;;
43606;SDS011;29197;44.788;10.366;2023-03-03T11:13:36;30.27;;;22.05;;
43606;SDS011;29197;44.788;10.366;2023-03-03T11:16:35;33.95;;;23.23;;
43606;SDS011;29197;44.788;10.366;2023-03-03T11:19:39;26.17;;;18.85;;
43606;SDS011;29197;44.788;10.366;2023-03-03T11:22:41;24.80;;;17.77;;
43606;SDS011;29197;44.788;10.366;2023-03-03T11:25:35;24.73;;;18.10;;
43606;SDS011;29197;44.788;10.366;2023-03-03T11:28:30;26.50;;;17.63;;
43606;SDS011;29197;44.788;10.366;2023-03-03T11:31:22;26.35;;;18.55;;
43606;SDS011;29197;44.788;10.366;2023-03-03T11:34:21;29.40;;;19.25;;
43606;SDS011;29197;44.788;10.366;2023-03-03T11:37:16;26.50;;;18.75;;
43606;SDS011;29197;44.788;10.366;2023-03-03T11:40:11;20.23;;;14.95;;
43606;SDS011;29197;44.788;10.366;2023-03-03T11:43:02;26.63;;;18.52;;
43606;SDS011;29197;44.788;10.366;2023-03-03T11:45:54;26.10;;;18.17;;
43606;SDS011;29197;44.788;10.366;2023-03-03T11:48:45;28.50;;;19.80;;
43606;SDS011;29197;44.788;10.366;2023-03-03T11:51:39;24.08;;;16.40;;
43606;SDS011;29197;44.788;10.366;2023-03-03T11:54:31;21.35;;;15.60;;
43606;SDS011;29197;44.788;10.366;2023-03-03T11:57:23;24.75;;;15.88;;
43606;SDS011;29197;44.788;10.366;2023-03-03T12:00:16;23.35;;;15.82;;
43606;SDS011;29197;44.788;10.366;2023-03-03T12:03:13;22.40;;;15.68;;
43606;SDS011;29197;44.788;10.366;2023-03-03T12:06:10;21.65;;;15.05;;
43606;SDS011;29197;44.788;10.366;2023-03-03T12:09:08;24.20;;;17.13;;
43606;SDS011;29197;44.788;10.366;2023-03-03T12:12:01;20.38;;;14.63;;
43606;SDS011;29197;44.788;10.366;2023-03-03T12:15:02;19.83;;;14.32;;
43606;SDS011;29197;44.788;10.366;2023-03-03T12:21:06;20.63;;;14.57;;
43606;SDS011;29197;44.788;10.366;2023-03-03T12:24:02;21.55;;;15.45;;
43606;SDS011;29197;44.788;10.366;2023-03-03T12:27:00;22.40;;;15.27;;
43606;SDS011;29197;44.788;10.366;2023-03-03T12:30:04;20.50;;;15.38;;
43606;SDS011;29197;44.788;10.366;2023-03-03T12:33:05;21.67;;;15.45;;
43606;SDS011;29197;44.788;10.366;2023-03-03T12:36:12;20.25;;;13.65;;
43606;SDS011;29197;44.788;10.366;2023-03-03T12:39:10;23.80;;;14.47;;
43606;SDS011;29197;44.788;10.366;2023-03-03T12:42:23;17.10;;;12.60;;
43606;SDS011;29197;44.788;10.366;2023-03-03T12:45:23;22.42;;;14.27;;
43606;SDS011;29197;44.788;10.366;2023-03-03T12:48:24;19.17;;;13.55;;
43606;SDS011;29197;44.788;10.366;2023-03-03T12:51:25;14.45;;;10.75;;
43606;SDS011;29197;44.788;10.366;2023-03-03T12:54:29;24.25;;;15.65;;
43606;SDS011;29197;44.788;10.366;2023-03-03T12:57:42;18.77;;;12.32;;
43606;SDS011;29197;44.788;10.366;2023-03-03T13:00:40;16.98;;;12.45;;
43606;SDS011;29197;44.788;10.366;2023-03-03T13:03:38;16.75;;;12.38;;
43606;SDS011;29197;44.788;10.366;2023-03-03T13:06:42;19.02;;;12.82;;
43606;SDS011;29197;44.788;10.366;2023-03-03T13:09:39;55.97;;;32.67;;
43606;SDS011;29197;44.788;10.366;2023-03-03T13:12:43;22.92;;;15.60;;
43606;SDS011;29197;44.788;10.366;2023-03-03T13:15:38;16.52;;;11.70;;
43606;SDS011;29197;44.788;10.366;2023-03-03T13:18:46;14.63;;;10.50;;
43606;SDS011;29197;44.788;10.366;2023-03-03T13:21:41;14.88;;;11.40;;
43606;SDS011;29197;44.788;10.366;2023-03-03T13:24:35;16.92;;;12.48;;
43606;SDS011;29197;44.788;10.366;2023-03-03T13:27:30;12.93;;;10.37;;
43606;SDS011;29197;44.788;10.366;2023-03-03T13:30:25;13.18;;;10.30;;
43606;SDS011;29197;44.788;10.366;2023-03-03T13:33:19;12.23;;;8.73;;
43606;SDS011;29197;44.788;10.366;2023-03-03T13:36:13;16.40;;;11.70;;
43606;SDS011;29197;44.788;10.366;2023-03-03T13:39:04;16.63;;;12.68;;
43606;SDS011;29197;44.788;10.366;2023-03-03T13:41:55;14.87;;;10.43;;
43606;SDS011;29197;44.788;10.366;2023-03-03T13:44:49;18.90;;;12.75;;
43606;SDS011;29197;44.788;10.366;2023-03-03T13:47:42;14.95;;;10.90;;
43606;SDS011;29197;44.788;10.366;2023-03-03T13:50:38;12.85;;;9.68;;
43606;SDS011;29197;44.788;10.366;2023-03-03T13:53:32;15.65;;;11.60;;
43606;SDS011;29197;44.788;10.366;2023-03-03T13:56:34;18.30;;;13.70;;
43606;SDS011;29197;44.788;10.366;2023-03-03T13:59:45;22.17;;;15.45;;
43606;SDS011;29197;44.788;10.366;2023-03-03T14:02:42;21.52;;;15.05;;
43606;SDS011;29197;44.788;10.366;2023-03-03T14:05:34;19.30;;;13.30;;
43606;SDS011;29197;44.788;10.366;2023-03-03T14:08:29;18.90;;;12.17;;
43606;SDS011;29197;44.788;10.366;2023-03-03T14:11:27;15.32;;;11.27;;
43606;SDS011;29197;44.788;10.366;2023-03-03T14:14:20;15.40;;;11.07;;
43606;SDS011;29197;44.788;10.366;2023-03-03T14:17:14;13.45;;;10.35;;
43606;SDS011;29197;44.788;10.366;2023-03-03T14:20:13;14.90;;;11.40;;
43606;SDS011;29197;44.788;10.366;2023-03-03T14:23:07;14.18;;;10.77;;
43606;SDS011;29197;44.788;10.366;2023-03-03T14:25:58;14.15;;;10.32;;
43606;SDS011;29197;44.788;10.366;2023-03-03T14:28:47;18.73;;;13.23;;
43606;SDS011;29197;44.788;10.366;2023-03-03T14:31:38;19.17;;;13.68;;
43606;SDS011;29197;44.788;10.366;2023-03-03T14:34:29;16.17;;;11.43;;
43606;SDS011;29197;44.788;10.366;2023-03-03T14:37:24;10.98;;;8.85;;
43606;SDS011;29197;44.788;10.366;2023-03-03T14:40:15;17.30;;;12.53;;
43606;SDS011;29197;44.788;10.366;2023-03-03T14:43:05;15.65;;;10.52;;
43606;SDS011;29197;44.788;10.366;2023-03-03T14:46:29;14.60;;;10.27;;
43606;SDS011;29197;44.788;10.366;2023-03-03T14:49:27;12.85;;;9.35;;
43606;SDS011;29197;44.788;10.366;2023-03-03T14:52:18;12.90;;;9.40;;
43606;SDS011;29197;44.788;10.366;2023-03-03T14:58:30;12.10;;;9.25;;
43606;SDS011;29197;44.788;10.366;2023-03-03T15:01:24;13.48;;;10.25;;
43606;SDS011;29197;44.788;10.366;2023-03-03T15:04:24;12.90;;;9.80;;
43606;SDS011;29197;44.788;10.366;2023-03-03T15:07:19;11.70;;;8.75;;
43606;SDS011;29197;44.788;10.366;2023-03-03T15:10:08;15.27;;;11.30;;
43606;SDS011;29197;44.788;10.366;2023-03-03T15:13:07;14.23;;;11.10;;
43606;SDS011;29197;44.788;10.366;2023-03-03T15:16:03;13.15;;;9.73;;
43606;SDS011;29197;44.788;10.366;2023-03-03T15:19:06;13.20;;;9.48;;
43606;SDS011;29197;44.788;10.366;2023-03-03T15:22:00;17.52;;;11.05;;
43606;SDS011;29197;44.788;10.366;2023-03-03T15:24:52;13.40;;;10.38;;
43606;SDS011;29197;44.788;10.366;2023-03-03T15:27:46;16.70;;;11.60;;
43606;SDS011;29197;44.788;10.366;2023-03-03T15:30:38;13.68;;;9.82;;
43606;SDS011;29197;44.788;10.366;2023-03-03T15:33:37;13.35;;;9.70;;
43606;SDS011;29197;44.788;10.366;2023-03-03T15:36:33;13.20;;;9.30;;
43606;SDS011;29197;44.788;10.366;2023-03-03T15:39:25;11.95;;;8.95;;
43606;SDS011;29197;44.788;10.366;2023-03-03T15:42:22;16.02;;;11.35;;
43606;SDS011;29197;44.788;10.366;2023-03-03T15:45:15;13.25;;;9.65;;
43606;SDS011;29197;44.788;10.366;2023-03-03T15:48:18;18.85;;;12.68;;
43606;SDS011;29197;44.788;10.366;2023-03-03T15:51:12;17.38;;;11.75;;
43606;SDS011;29197;44.788;10.366;2023-03-03T15:54:14;29.67;;;16.30;;
43606;SDS011;29197;44.788;10.366;2023-03-03T15:57:12;27.92;;;14.00;;
43606;SDS011;29197;44.788;10.366;2023-03-03T16:00:11;20.67;;;12.90;;
43606;SDS011;29197;44.788;10.366;2023-03-03T16:03:16;18.95;;;11.60;;
43606;SDS011;29197;44.788;10.366;2023-03-03T16:06:10;19.42;;;11.43;;
43606;SDS011;29197;44.788;10.366;2023-03-03T16:09:05;21.73;;;11.88;;
43606;SDS011;29197;44.788;10.366;2023-03-03T16:12:04;21.27;;;12.52;;
43606;SDS011;29197;44.788;10.366;2023-03-03T16:15:06;18.65;;;9.68;;
43606;SDS011;29197;44.788;10.366;2023-03-03T16:18:08;16.63;;;11.48;;
43606;SDS011;29197;44.788;10.366;2023-03-03T16:21:09;19.08;;;12.93;;
43606;SDS011;29197;44.788;10.366;2023-03-03T16:24:07;17.70;;;12.27;;
43606;SDS011;29197;44.788;10.366;2023-03-03T16:27:09;20.38;;;12.88;;
43606;SDS011;29197;44.788;10.366;2023-03-03T16:30:05;15.52;;;10.82;;
43606;SDS011;29197;44.788;10.366;2023-03-03T16:33:14;18.27;;;13.05;;
43606;SDS011;29197;44.788;10.366;2023-03-03T16:36:10;18.97;;;12.30;;
43606;SDS011;29197;44.788;10.366;2023-03-03T16:39:09;18.45;;;13.23;;
43606;SDS011;29197;44.788;10.366;2023-03-03T16:42:02;16.90;;;12.52;;
43606;SDS011;29197;44.788;10.366;2023-03-03T16:45:15;20.25;;;13.23;;
43606;SDS011;29197;44.788;10.366;2023-03-03T16:48:23;18.75;;;13.80;;
43606;SDS011;29197;44.788;10.366;2023-03-03T16:51:24;19.63;;;13.68;;
43606;SDS011;29197;44.788;10.366;2023-03-03T16:54:23;18.35;;;13.25;;
43606;SDS011;29197;44.788;10.366;2023-03-03T16:57:22;18.77;;;12.95;;
43606;SDS011;29197;44.788;10.366;2023-03-03T17:00:16;23.00;;;15.07;;